createdAt,value
2018-08-18T00:01:54.387Z,49.98
2018-08-18T00:05:58.873Z,50.38
2018-08-18T00:10:03.211Z,49.84
2018-08-18T00:14:07.483Z,49.90
2018-08-18T00:18:12.052Z,50.07
2018-08-18T00:22:16.150Z,50.96
2018-08-18T00:26:20.388Z,50.77
2018-08-18T00:30:28.521Z,50.26
2018-08-18T00:34:33.077Z,49.95
2018-08-18T00:38:37.406Z,50.07
2018-08-18T00:42:42.129Z,50.55
2018-08-18T00:46:46.386Z,50.27
2018-08-18T00:50:50.567Z,50.69
2018-08-18T00:54:55.229Z,51.35
2018-08-18T00:58:59.463Z,51.86
2018-08-18T01:03:03.678Z,51.27
2018-08-18T01:07:12.945Z,52.20
2018-08-18T01:11:17.143Z,51.73
2018-08-18T01:15:27.549Z,52.57
2018-08-18T01:19:31.565Z,52.22
2018-08-18T01:27:51.838Z,52.17
2018-08-18T01:31:55.426Z,52.32
2018-08-18T01:35:58.991Z,52.63
2018-08-18T01:40:02.520Z,52.44
2018-08-18T01:44:17.170Z,53.14
2018-08-18T01:48:20.782Z,53.03
2018-08-18T01:52:25.614Z,52.99
2018-08-18T02:05:26.325Z,52.94
2018-08-18T02:09:30.120Z,53.73
2018-08-18T02:13:34.719Z,53.70
2018-08-18T02:17:39.569Z,53.44
2018-08-18T02:21:43.614Z,54.26
2018-08-18T02:25:47.656Z,53.55
2018-08-18T02:30:03.548Z,53.55
2018-08-18T02:34:07.742Z,54.48
2018-08-18T02:38:16.792Z,54.35
2018-08-18T02:42:20.961Z,54.73
2018-08-18T02:46:31.485Z,54.22
2018-08-18T02:50:35.891Z,54.21
2018-08-18T02:54:41.385Z,55.16
2018-08-18T02:58:55.521Z,54.73
2018-08-18T03:02:59.844Z,55.59
2018-08-18T03:07:04.226Z,55.72
2018-08-18T03:11:08.528Z,55.71
2018-08-18T03:15:16.644Z,55.30
2018-08-18T03:19:21.917Z,55.18
2018-08-18T03:23:26.539Z,55.28
2018-08-18T03:27:30.932Z,56.00
2018-08-18T03:31:35.478Z,55.45
2018-08-18T03:35:40.427Z,55.97
2018-08-18T03:39:44.872Z,55.66
2018-08-18T03:43:49.520Z,56.61
2018-08-18T03:47:56.135Z,56.52
2018-08-18T03:52:00.563Z,56.71
2018-08-18T03:56:04.959Z,56.78
2018-08-18T04:00:09.430Z,56.84
2018-08-18T04:04:15.690Z,57.57
2018-08-18T04:08:19.945Z,57.42
2018-08-18T04:12:24.287Z,57.50
2018-08-18T04:16:29.386Z,57.49
2018-08-18T04:20:33.699Z,57.20
2018-08-18T04:24:42.842Z,57.19
2018-08-18T04:28:47.280Z,57.64
2018-08-18T04:32:55.395Z,57.90
2018-08-18T04:37:01.636Z,57.79
2018-08-18T04:41:05.796Z,57.23
2018-08-18T04:45:10.105Z,57.63
2018-08-18T05:04:17.913Z,56.92
2018-08-18T05:08:22.034Z,57.48
2018-08-18T05:12:27.504Z,57.62
2018-08-18T05:16:32.572Z,57.87
2018-08-18T05:20:36.963Z,57.61
2018-08-18T05:24:42.655Z,57.83
2018-08-18T05:28:47.476Z,57.53
2018-08-18T05:32:52.329Z,57.02
2018-08-18T05:36:57.103Z,57.23
2018-08-18T05:41:01.631Z,57.33
2018-08-18T05:45:20.993Z,57.39
2018-08-18T05:49:26.258Z,56.62
2018-08-18T05:53:33.780Z,56.04
2018-08-18T05:57:39.282Z,56.42
2018-08-18T06:01:43.592Z,55.90
2018-08-18T06:05:48.431Z,55.74
2018-08-18T06:09:53.068Z,55.64
2018-08-18T06:13:58.102Z,54.40
2018-08-18T06:22:25.295Z,54.56
2018-08-18T06:26:33.153Z,54.13
2018-08-18T06:30:38.583Z,54.05
2018-08-18T06:34:44.275Z,54.33
2018-08-18T06:38:49.342Z,54.39
2018-08-18T06:42:59.566Z,54.29
2018-08-18T06:47:17.135Z,53.72
2018-08-18T06:51:22.657Z,52.78
2018-08-18T06:55:31.631Z,53.04
2018-08-18T06:59:38.966Z,52.78
2018-08-18T07:03:48.334Z,51.34
2018-08-18T07:07:55.458Z,51.42
2018-08-18T07:12:01.910Z,51.10
2018-08-18T07:16:11.326Z,51.86
2018-08-18T07:24:34.971Z,50.40
2018-08-18T07:28:38.456Z,50.53
2018-08-18T07:32:41.978Z,50.43
2018-08-18T07:36:45.483Z,49.74
2018-08-18T07:40:51.374Z,50.13
2018-08-18T07:44:55.358Z,48.85
2018-08-18T07:48:58.895Z,48.71
2018-08-18T07:53:02.894Z,49.37
2018-08-18T07:57:06.421Z,47.39
2018-08-18T08:01:09.936Z,47.98
2018-08-18T08:05:13.412Z,47.81
2018-08-18T08:09:16.961Z,47.32
2018-08-18T08:13:20.470Z,47.59
2018-08-18T08:17:25.015Z,46.63
2018-08-18T08:21:28.517Z,46.75
2018-08-18T08:25:32.019Z,46.93
2018-08-18T08:29:39.443Z,45.67
2018-08-18T08:33:42.978Z,46.29
2018-08-18T08:37:47.126Z,44.99
2018-08-18T08:41:50.683Z,44.93
2018-08-18T08:45:54.262Z,44.65
2018-08-18T08:49:57.757Z,45.20
2018-08-18T08:54:01.254Z,44.94
2018-08-18T08:58:04.782Z,43.46
2018-08-18T09:02:09.934Z,43.63
2018-08-18T09:06:13.525Z,42.13
2018-08-18T09:10:17.504Z,42.84
2018-08-18T09:14:21.512Z,43.04
2018-08-18T09:18:25.031Z,42.48
2018-08-18T09:22:29.307Z,42.72
2018-08-18T09:26:37.251Z,41.33
2018-08-18T09:30:40.775Z,40.90
2018-08-18T09:34:49.434Z,41.48
2018-08-18T09:38:52.947Z,40.93
2018-08-18T09:42:56.490Z,40.58
2018-08-18T09:47:00.112Z,40.61
2018-08-18T09:51:03.604Z,40.37
2018-08-18T09:55:07.122Z,40.36
2018-08-18T09:59:10.644Z,39.76
2018-08-18T10:03:14.138Z,39.88
2018-08-18T10:07:17.670Z,39.71
2018-08-18T10:11:21.187Z,38.79
2018-08-18T10:15:25.263Z,38.63
2018-08-18T10:19:30.136Z,38.37
2018-08-18T10:23:33.943Z,38.88
2018-08-18T10:27:37.808Z,37.72
2018-08-18T10:31:58.636Z,38.22
2018-08-18T10:36:02.516Z,36.96
2018-08-18T10:40:11.143Z,35.99
2018-08-18T10:44:15.158Z,34.84
2018-08-18T10:48:18.721Z,35.81
2018-08-18T10:52:34.500Z,36.50
2018-08-18T10:56:38.223Z,35.64
2018-08-18T11:00:41.804Z,34.93
2018-08-18T11:04:45.483Z,34.61
2018-08-18T11:08:49.024Z,33.12
2018-08-18T11:12:52.583Z,34.43
2018-08-18T11:16:56.118Z,32.93
2018-08-18T11:20:59.702Z,33.94
2018-08-18T11:25:03.309Z,33.91
2018-08-18T11:29:14.756Z,34.02
2018-08-18T11:33:36.721Z,33.27
2018-08-18T11:37:52.875Z,33.71
2018-08-18T11:41:56.991Z,33.78
2018-08-18T11:46:00.540Z,32.56
2018-08-18T11:50:04.138Z,31.91
2018-08-18T11:54:07.658Z,32.32
2018-08-18T11:58:12.640Z,31.46
2018-08-18T12:02:16.378Z,31.89
2018-08-18T12:06:20.047Z,32.13
2018-08-18T12:10:23.590Z,31.26
2018-08-18T12:14:27.131Z,31.47
2018-08-18T12:18:31.767Z,31.73
2018-08-18T12:22:35.272Z,31.02
2018-08-18T12:26:39.060Z,30.42
2018-08-18T12:30:42.642Z,30.93
2018-08-18T12:34:46.272Z,31.38
2018-08-18T12:38:51.818Z,31.26
2018-08-18T12:42:55.361Z,30.81
2018-08-18T12:47:00.209Z,30.29
2018-08-18T12:51:04.522Z,30.86
2018-08-18T12:55:08.036Z,30.37
2018-08-18T12:59:11.506Z,29.69
2018-08-18T13:03:15.039Z,29.15
2018-08-18T13:07:18.476Z,28.85
2018-08-18T13:11:22.058Z,29.77
2018-08-18T13:15:25.610Z,30.04
2018-08-18T13:19:31.489Z,29.61
2018-08-18T13:23:34.945Z,29.50
2018-08-18T13:27:48.802Z,29.98
2018-08-18T13:31:52.365Z,29.64
2018-08-18T13:35:55.852Z,29.59
2018-08-18T13:39:59.377Z,30.10
2018-08-18T13:44:02.877Z,30.21
2018-08-18T13:48:07.991Z,29.79
2018-08-18T13:52:11.493Z,29.55
2018-08-18T13:56:14.982Z,30.18
2018-08-18T14:00:18.563Z,30.10
2018-08-18T14:04:27.362Z,30.37
2018-08-18T14:08:30.789Z,29.89
2018-08-18T14:12:34.301Z,29.26
2018-08-18T14:16:37.817Z,30.31
2018-08-18T14:20:59.102Z,29.55
2018-08-18T14:25:02.576Z,29.47
2018-08-18T14:29:06.081Z,30.51
2018-08-18T14:33:09.695Z,29.79
2018-08-18T14:37:13.846Z,29.70
2018-08-18T14:41:28.472Z,30.52
2018-08-18T14:45:32.016Z,30.49
2018-08-18T14:49:35.556Z,29.16
2018-08-18T14:53:41.158Z,29.58
2018-08-18T14:57:49.799Z,29.21
2018-08-18T15:01:53.378Z,29.81
2018-08-18T15:05:56.958Z,30.04
2018-08-18T15:10:00.634Z,29.91
2018-08-18T15:14:04.148Z,29.09
2018-08-18T15:18:12.929Z,30.39
2018-08-18T15:22:16.516Z,30.38
2018-08-18T15:26:20.106Z,30.22
2018-08-18T15:30:23.779Z,30.29
2018-08-18T15:34:28.057Z,30.64
2018-08-18T15:38:43.650Z,29.79
2018-08-18T15:42:47.385Z,30.56
2018-08-18T15:46:50.944Z,30.66
2018-08-18T15:50:54.472Z,30.68
2018-08-18T15:54:57.954Z,30.40
2018-08-18T15:59:02.267Z,30.71
2018-08-18T16:03:06.018Z,30.74
2018-08-18T16:07:09.590Z,31.36
2018-08-18T16:11:13.550Z,30.89
2018-08-18T16:15:17.953Z,31.11
2018-08-18T16:19:21.418Z,31.11
2018-08-18T16:23:25.625Z,30.38
2018-08-18T16:27:29.085Z,31.58
2018-08-18T16:31:32.488Z,32.21
2018-08-18T16:35:37.273Z,32.48
2018-08-18T16:39:41.592Z,32.58
2018-08-18T16:43:45.363Z,32.91
2018-08-18T16:47:53.238Z,33.13
2018-08-18T16:51:59.321Z,33.07
2018-08-18T16:56:02.854Z,32.65
2018-08-18T17:00:06.478Z,32.40
2018-08-18T17:04:12.155Z,32.03
2018-08-18T17:08:15.723Z,31.43
2018-08-18T17:12:21.436Z,32.27
2018-08-18T17:16:25.128Z,32.36
2018-08-18T17:20:28.940Z,31.73
2018-08-18T17:24:32.607Z,32.40
2018-08-18T17:28:36.256Z,31.61
2018-08-18T17:32:39.898Z,32.08
2018-08-18T17:36:43.357Z,32.05
2018-08-18T17:40:46.910Z,32.00
2018-08-18T17:44:50.299Z,32.09
2018-08-18T17:48:53.794Z,32.73
2018-08-18T17:52:57.205Z,32.38
2018-08-18T17:57:00.632Z,32.68
2018-08-18T18:01:06.186Z,32.49
2018-08-18T18:05:10.516Z,32.98
2018-08-18T18:09:14.206Z,33.35
2018-08-18T18:13:23.157Z,34.13
2018-08-18T18:17:27.210Z,34.04
2018-08-18T18:21:30.956Z,34.55
2018-08-18T18:25:35.614Z,35.03
2018-08-18T18:29:39.353Z,35.10
2018-08-18T18:33:45.111Z,34.32
2018-08-18T18:37:48.854Z,34.13
2018-08-18T18:41:52.660Z,34.98
2018-08-18T18:45:56.520Z,35.20
2018-08-18T18:50:00.394Z,34.85
2018-08-18T18:54:04.304Z,34.49
2018-08-18T18:58:12.493Z,35.27
2018-08-18T19:02:16.509Z,35.94
2018-08-18T19:06:20.404Z,35.86
2018-08-18T19:10:25.765Z,36.44
2018-08-18T19:14:29.627Z,36.98
2018-08-18T19:18:33.695Z,37.33
2018-08-18T19:22:37.672Z,38.20
2018-08-18T19:26:47.724Z,37.72
2018-08-18T19:30:51.847Z,38.63
2018-08-18T19:34:56.611Z,38.63
2018-08-18T19:39:01.672Z,38.60
2018-08-18T19:43:10.977Z,38.19
2018-08-18T19:47:35.604Z,39.30
2018-08-18T19:51:39.721Z,38.44
2018-08-18T19:55:45.195Z,39.21
2018-08-18T19:59:49.528Z,38.43
2018-08-18T20:03:54.153Z,39.54
2018-08-18T20:07:58.285Z,40.02
2018-08-18T20:12:02.361Z,39.95
2018-08-18T20:16:06.781Z,39.61
2018-08-18T20:20:10.934Z,39.82
2018-08-18T20:24:16.068Z,40.62
2018-08-18T20:28:20.128Z,40.84
2018-08-18T20:32:24.354Z,40.89
2018-08-18T20:36:28.785Z,41.96
2018-08-18T20:40:33.005Z,41.86
2018-08-18T20:44:37.091Z,42.43
2018-08-18T20:48:41.295Z,42.39
2018-08-18T20:52:45.535Z,42.52
2018-08-18T20:56:49.737Z,41.94
2018-08-18T21:00:53.857Z,42.86
2018-08-18T21:05:00.449Z,42.76
2018-08-18T21:09:18.155Z,42.88
2018-08-18T21:13:22.474Z,43.19
2018-08-18T21:17:26.461Z,43.34
2018-08-18T21:21:35.036Z,44.23
2018-08-18T21:25:48.290Z,44.16
2018-08-18T21:29:53.880Z,43.32
2018-08-18T21:33:59.668Z,43.02
2018-08-18T21:38:06.009Z,43.05
2018-08-18T21:42:10.192Z,43.77
2018-08-18T21:46:17.277Z,43.33
2018-08-18T21:50:21.571Z,43.79
2018-08-18T21:54:25.860Z,43.77
2018-08-18T21:58:29.970Z,44.35
2018-08-18T22:02:42.454Z,44.89
2018-08-18T22:06:46.617Z,44.71
2018-08-18T22:10:54.878Z,45.56
2018-08-18T22:14:59.545Z,45.92
2018-08-18T22:19:04.335Z,46.52
2018-08-18T22:23:09.114Z,45.99
2018-08-18T22:27:17.976Z,46.01
2018-08-18T22:31:23.153Z,45.52
2018-08-18T22:35:27.450Z,45.50
2018-08-18T22:39:31.636Z,45.75
2018-08-18T22:43:36.595Z,45.78
2018-08-18T22:47:42.464Z,45.87
2018-08-18T22:51:46.785Z,46.63
2018-08-18T22:55:50.941Z,46.88
2018-08-18T22:59:55.196Z,47.81
2018-08-18T23:03:59.380Z,47.98
2018-08-18T23:08:04.447Z,47.44
2018-08-18T23:12:08.841Z,48.05
2018-08-18T23:16:13.192Z,48.05
2018-08-18T23:20:17.274Z,47.78
2018-08-18T23:24:31.578Z,47.64
2018-08-18T23:28:35.705Z,48.54
2018-08-18T23:32:40.274Z,47.88
2018-08-18T23:36:44.677Z,48.29
2018-08-18T23:40:50.745Z,48.39
2018-08-18T23:44:55.405Z,47.97
2018-08-18T23:49:00.537Z,47.95
2018-08-18T23:53:07.061Z,48.64
2018-08-18T23:57:11.365Z,48.44
